sensor_id;sensor_type;location;lat;lon;timestamp;P1;durP1;ratioP1;P2;durP2;ratioP2
3066;SDS011;1544;48.834;9.194;2023-05-01T00:01:30;10.47;;;9.00;;
3066;SDS011;1544;48.834;9.194;2023-05-01T00:04:05;10.77;;;9.63;;
3066;SDS011;1544;48.834;9.194;2023-05-01T00:06:42;10.50;;;9.50;;
3066;SDS011;1544;48.834;9.194;2023-05-01T00:09:18;10.40;;;9.30;;
3066;SDS011;1544;48.834;9.194;2023-05-01T00:11:53;11.37;;;9.30;;
3066;SDS011;1544;48.834;9.194;2023-05-01T00:14:29;9.67;;;8.87;;
3066;SDS011;1544;48.834;9.194;2023-05-01T00:17:06;10.33;;;9.37;;
3066;SDS011;1544;48.834;9.194;2023-05-01T00:19:42;9.53;;;8.63;;
3066;SDS011;1544;48.834;9.194;2023-05-01T00:22:18;11.07;;;9.37;;
3066;SDS011;1544;48.834;9.194;2023-05-01T00:24:54;10.83;;;8.73;;
3066;SDS011;1544;48.834;9.194;2023-05-01T00:27:30;10.67;;;9.60;;
3066;SDS011;1544;48.834;9.194;2023-05-01T00:30:06;9.07;;;8.17;;
3066;SDS011;1544;48.834;9.194;2023-05-01T00:32:42;8.93;;;8.03;;
3066;SDS011;1544;48.834;9.194;2023-05-01T00:35:18;9.10;;;8.20;;
3066;SDS011;1544;48.834;9.194;2023-05-01T00:37:54;9.97;;;9.07;;
3066;SDS011;1544;48.834;9.194;2023-05-01T00:40:30;9.27;;;8.40;;
3066;SDS011;1544;48.834;9.194;2023-05-01T00:43:06;9.57;;;8.67;;
3066;SDS011;1544;48.834;9.194;2023-05-01T00:45:43;8.00;;;7.30;;
3066;SDS011;1544;48.834;9.194;2023-05-01T00:48:20;9.33;;;8.43;;
3066;SDS011;1544;48.834;9.194;2023-05-01T00:50:56;10.53;;;9.10;;
3066;SDS011;1544;48.834;9.194;2023-05-01T00:53:35;9.87;;;8.97;;
3066;SDS011;1544;48.834;9.194;2023-05-01T00:56:11;8.73;;;7.93;;
3066;SDS011;1544;48.834;9.194;2023-05-01T00:58:48;9.57;;;8.70;;
3066;SDS011;1544;48.834;9.194;2023-05-01T01:01:27;9.37;;;8.07;;
3066;SDS011;1544;48.834;9.194;2023-05-01T01:04:03;9.37;;;8.10;;
3066;SDS011;1544;48.834;9.194;2023-05-01T01:10:21;9.53;;;8.63;;
3066;SDS011;1544;48.834;9.194;2023-05-01T01:22:27;9.10;;;8.30;;
3066;SDS011;1544;48.834;9.194;2023-05-01T01:25:06;9.73;;;8.73;;
3066;SDS011;1544;48.834;9.194;2023-05-01T01:28:23;9.50;;;8.60;;
3066;SDS011;1544;48.834;9.194;2023-05-01T01:31:20;8.37;;;7.60;;
3066;SDS011;1544;48.834;9.194;2023-05-01T01:34:25;9.47;;;8.47;;
3066;SDS011;1544;48.834;9.194;2023-05-01T01:37:19;8.77;;;8.07;;
3066;SDS011;1544;48.834;9.194;2023-05-01T01:40:07;9.03;;;8.23;;
3066;SDS011;1544;48.834;9.194;2023-05-01T01:42:57;8.90;;;8.10;;
3066;SDS011;1544;48.834;9.194;2023-05-01T01:45:42;9.40;;;8.40;;
3066;SDS011;1544;48.834;9.194;2023-05-01T01:48:24;8.93;;;8.20;;
3066;SDS011;1544;48.834;9.194;2023-05-01T01:51:07;9.40;;;8.53;;
3066;SDS011;1544;48.834;9.194;2023-05-01T01:53:49;9.43;;;8.30;;
3066;SDS011;1544;48.834;9.194;2023-05-01T01:56:28;9.03;;;8.23;;
3066;SDS011;1544;48.834;9.194;2023-05-01T01:59:06;8.70;;;7.90;;
3066;SDS011;1544;48.834;9.194;2023-05-01T02:01:44;8.70;;;7.90;;
3066;SDS011;1544;48.834;9.194;2023-05-01T02:04:22;9.07;;;8.27;;
3066;SDS011;1544;48.834;9.194;2023-05-01T02:07:00;9.23;;;8.33;;
3066;SDS011;1544;48.834;9.194;2023-05-01T02:09:36;9.70;;;8.70;;
3066;SDS011;1544;48.834;9.194;2023-05-01T02:12:13;10.37;;;8.70;;
3066;SDS011;1544;48.834;9.194;2023-05-01T02:14:52;8.73;;;8.00;;
3066;SDS011;1544;48.834;9.194;2023-05-01T02:17:28;9.20;;;8.30;;
3066;SDS011;1544;48.834;9.194;2023-05-01T02:20:06;10.90;;;8.30;;
3066;SDS011;1544;48.834;9.194;2023-05-01T02:22:45;10.70;;;9.13;;
3066;SDS011;1544;48.834;9.194;2023-05-01T02:25:22;9.03;;;8.20;;
3066;SDS011;1544;48.834;9.194;2023-05-01T02:27:59;9.60;;;8.70;;
3066;SDS011;1544;48.834;9.194;2023-05-01T02:30:38;8.93;;;8.13;;
3066;SDS011;1544;48.834;9.194;2023-05-01T02:33:14;8.63;;;7.73;;
3066;SDS011;1544;48.834;9.194;2023-05-01T02:35:50;8.87;;;7.90;;
3066;SDS011;1544;48.834;9.194;2023-05-01T02:38:27;9.53;;;8.73;;
3066;SDS011;1544;48.834;9.194;2023-05-01T02:41:03;9.43;;;8.60;;
3066;SDS011;1544;48.834;9.194;2023-05-01T02:43:44;8.70;;;8.00;;
3066;SDS011;1544;48.834;9.194;2023-05-01T02:46:29;9.07;;;8.27;;
3066;SDS011;1544;48.834;9.194;2023-05-01T02:49:11;9.53;;;8.63;;
3066;SDS011;1544;48.834;9.194;2023-05-01T02:51:49;9.30;;;8.60;;
3066;SDS011;1544;48.834;9.194;2023-05-01T02:54:25;9.83;;;8.83;;
3066;SDS011;1544;48.834;9.194;2023-05-01T02:57:02;10.67;;;9.50;;
3066;SDS011;1544;48.834;9.194;2023-05-01T02:59:39;11.60;;;10.20;;
3066;SDS011;1544;48.834;9.194;2023-05-01T03:02:15;9.67;;;8.77;;
3066;SDS011;1544;48.834;9.194;2023-05-01T03:04:51;11.10;;;10.00;;
3066;SDS011;1544;48.834;9.194;2023-05-01T03:07:27;9.40;;;8.53;;
3066;SDS011;1544;48.834;9.194;2023-05-01T03:10:09;9.53;;;8.73;;
3066;SDS011;1544;48.834;9.194;2023-05-01T03:12:45;9.97;;;9.00;;
3066;SDS011;1544;48.834;9.194;2023-05-01T03:15:21;9.83;;;8.93;;
3066;SDS011;1544;48.834;9.194;2023-05-01T03:17:57;11.27;;;8.80;;
3066;SDS011;1544;48.834;9.194;2023-05-01T03:20:33;10.50;;;9.60;;
3066;SDS011;1544;48.834;9.194;2023-05-01T03:23:11;9.97;;;8.97;;
3066;SDS011;1544;48.834;9.194;2023-05-01T03:25:47;10.13;;;9.10;;
3066;SDS011;1544;48.834;9.194;2023-05-01T03:28:23;10.57;;;9.57;;
3066;SDS011;1544;48.834;9.194;2023-05-01T03:31:00;10.13;;;9.23;;
3066;SDS011;1544;48.834;9.194;2023-05-01T03:33:38;9.23;;;8.43;;
3066;SDS011;1544;48.834;9.194;2023-05-01T03:36:14;8.73;;;7.93;;
3066;SDS011;1544;48.834;9.194;2023-05-01T03:38:52;9.43;;;8.53;;
3066;SDS011;1544;48.834;9.194;2023-05-01T03:41:47;8.63;;;7.90;;
3066;SDS011;1544;48.834;9.194;2023-05-01T03:44:30;8.23;;;7.43;;
3066;SDS011;1544;48.834;9.194;2023-05-01T03:47:07;8.47;;;7.77;;
3066;SDS011;1544;48.834;9.194;2023-05-01T03:49:48;8.20;;;7.50;;
3066;SDS011;1544;48.834;9.194;2023-05-01T03:52:24;9.00;;;8.30;;
3066;SDS011;1544;48.834;9.194;2023-05-01T03:55:00;9.40;;;8.50;;
3066;SDS011;1544;48.834;9.194;2023-05-01T03:57:48;8.67;;;7.87;;
3066;SDS011;1544;48.834;9.194;2023-05-01T04:00:24;8.70;;;8.00;;
3066;SDS011;1544;48.834;9.194;2023-05-01T04:03:01;8.20;;;7.60;;
3066;SDS011;1544;48.834;9.194;2023-05-01T04:05:40;8.50;;;7.63;;
3066;SDS011;1544;48.834;9.194;2023-05-01T04:08:16;8.47;;;7.43;;
3066;SDS011;1544;48.834;9.194;2023-05-01T04:10:53;7.97;;;7.27;;
3066;SDS011;1544;48.834;9.194;2023-05-01T04:13:29;8.20;;;7.50;;
3066;SDS011;1544;48.834;9.194;2023-05-01T04:16:05;9.20;;;8.40;;
3066;SDS011;1544;48.834;9.194;2023-05-01T04:18:42;8.97;;;8.17;;
3066;SDS011;1544;48.834;9.194;2023-05-01T04:21:18;8.17;;;7.57;;
3066;SDS011;1544;48.834;9.194;2023-05-01T04:23:57;9.10;;;8.30;;
3066;SDS011;1544;48.834;9.194;2023-05-01T04:26:34;9.70;;;8.90;;
3066;SDS011;1544;48.834;9.194;2023-05-01T04:29:10;10.10;;;9.20;;
3066;SDS011;1544;48.834;9.194;2023-05-01T04:31:46;10.20;;;9.20;;
3066;SDS011;1544;48.834;9.194;2023-05-01T04:34:22;9.53;;;8.63;;
3066;SDS011;1544;48.834;9.194;2023-05-01T04:36:59;10.00;;;9.10;;
3066;SDS011;1544;48.834;9.194;2023-05-01T04:39:37;9.03;;;8.23;;
3066;SDS011;1544;48.834;9.194;2023-05-01T04:42:13;8.93;;;8.13;;
3066;SDS011;1544;48.834;9.194;2023-05-01T04:44:49;9.80;;;8.90;;
3066;SDS011;1544;48.834;9.194;2023-05-01T04:47:25;9.83;;;9.03;;
3066;SDS011;1544;48.834;9.194;2023-05-01T04:50:02;8.87;;;8.17;;
3066;SDS011;1544;48.834;9.194;2023-05-01T04:52:39;9.57;;;8.77;;
3066;SDS011;1544;48.834;9.194;2023-05-01T04:55:16;10.57;;;9.67;;
3066;SDS011;1544;48.834;9.194;2023-05-01T04:58:15;10.33;;;9.23;;
3066;SDS011;1544;48.834;9.194;2023-05-01T05:00:53;9.10;;;8.23;;
3066;SDS011;1544;48.834;9.194;2023-05-01T05:03:31;8.80;;;8.07;;
3066;SDS011;1544;48.834;9.194;2023-05-01T05:06:07;8.37;;;7.60;;
3066;SDS011;1544;48.834;9.194;2023-05-01T05:08:43;9.50;;;8.57;;
3066;SDS011;1544;48.834;9.194;2023-05-01T05:11:19;8.27;;;7.57;;
3066;SDS011;1544;48.834;9.194;2023-05-01T05:14:08;8.93;;;8.00;;
3066;SDS011;1544;48.834;9.194;2023-05-01T05:16:45;7.27;;;6.67;;
3066;SDS011;1544;48.834;9.194;2023-05-01T05:19:21;8.87;;;8.17;;
3066;SDS011;1544;48.834;9.194;2023-05-01T05:21:57;8.93;;;8.10;;
3066;SDS011;1544;48.834;9.194;2023-05-01T05:24:39;8.07;;;7.40;;
3066;SDS011;1544;48.834;9.194;2023-05-01T05:27:15;7.93;;;7.23;;
3066;SDS011;1544;48.834;9.194;2023-05-01T05:29:51;7.10;;;6.50;;
3066;SDS011;1544;48.834;9.194;2023-05-01T05:32:27;8.10;;;7.40;;
3066;SDS011;1544;48.834;9.194;2023-05-01T05:35:04;7.50;;;6.80;;
3066;SDS011;1544;48.834;9.194;2023-05-01T05:37:40;7.43;;;6.70;;
3066;SDS011;1544;48.834;9.194;2023-05-01T05:40:20;7.40;;;6.90;;
3066;SDS011;1544;48.834;9.194;2023-05-01T05:43:04;8.90;;;7.60;;
3066;SDS011;1544;48.834;9.194;2023-05-01T05:45:41;8.93;;;8.13;;
3066;SDS011;1544;48.834;9.194;2023-05-01T05:48:17;8.40;;;7.70;;
3066;SDS011;1544;48.834;9.194;2023-05-01T05:50:53;8.90;;;8.10;;
3066;SDS011;1544;48.834;9.194;2023-05-01T05:53:30;8.73;;;7.97;;
3066;SDS011;1544;48.834;9.194;2023-05-01T05:56:06;8.73;;;7.83;;
3066;SDS011;1544;48.834;9.194;2023-05-01T05:58:42;7.20;;;6.63;;
3066;SDS011;1544;48.834;9.194;2023-05-01T06:01:18;8.63;;;7.83;;
3066;SDS011;1544;48.834;9.194;2023-05-01T06:03:54;8.00;;;7.30;;
3066;SDS011;1544;48.834;9.194;2023-05-01T06:06:32;8.13;;;7.17;;
3066;SDS011;1544;48.834;9.194;2023-05-01T06:09:09;8.07;;;7.37;;
3066;SDS011;1544;48.834;9.194;2023-05-01T06:11:46;6.97;;;6.47;;
3066;SDS011;1544;48.834;9.194;2023-05-01T06:14:22;7.20;;;6.70;;
3066;SDS011;1544;48.834;9.194;2023-05-01T06:16:59;7.30;;;6.37;;
3066;SDS011;1544;48.834;9.194;2023-05-01T06:19:35;8.07;;;7.37;;
3066;SDS011;1544;48.834;9.194;2023-05-01T06:22:15;6.60;;;6.10;;
3066;SDS011;1544;48.834;9.194;2023-05-01T06:25:06;7.23;;;6.43;;
3066;SDS011;1544;48.834;9.194;2023-05-01T06:27:43;6.10;;;5.67;;
3066;SDS011;1544;48.834;9.194;2023-05-01T06:30:20;6.90;;;6.30;;
3066;SDS011;1544;48.834;9.194;2023-05-01T06:32:56;5.67;;;5.30;;
3066;SDS011;1544;48.834;9.194;2023-05-01T06:35:32;6.43;;;5.93;;
3066;SDS011;1544;48.834;9.194;2023-05-01T06:38:08;6.20;;;5.80;;
3066;SDS011;1544;48.834;9.194;2023-05-01T06:40:44;6.40;;;5.90;;
3066;SDS011;1544;48.834;9.194;2023-05-01T06:43:23;5.50;;;5.10;;
3066;SDS011;1544;48.834;9.194;2023-05-01T06:46:05;5.40;;;5.10;;
3066;SDS011;1544;48.834;9.194;2023-05-01T06:48:41;6.63;;;6.13;;
3066;SDS011;1544;48.834;9.194;2023-05-01T06:51:20;5.73;;;5.33;;
3066;SDS011;1544;48.834;9.194;2023-05-01T06:53:57;5.43;;;5.03;;
3066;SDS011;1544;48.834;9.194;2023-05-01T06:56:33;5.97;;;5.57;;
3066;SDS011;1544;48.834;9.194;2023-05-01T06:59:09;5.23;;;4.93;;
3066;SDS011;1544;48.834;9.194;2023-05-01T07:01:45;4.83;;;4.53;;
3066;SDS011;1544;48.834;9.194;2023-05-01T07:04:21;4.70;;;4.40;;
3066;SDS011;1544;48.834;9.194;2023-05-01T07:06:58;5.33;;;5.03;;
3066;SDS011;1544;48.834;9.194;2023-05-01T07:09:35;5.60;;;5.20;;
3066;SDS011;1544;48.834;9.194;2023-05-01T07:12:11;5.70;;;5.30;;
3066;SDS011;1544;48.834;9.194;2023-05-01T07:14:47;5.93;;;5.53;;
3066;SDS011;1544;48.834;9.194;2023-05-01T07:17:23;6.00;;;5.60;;
3066;SDS011;1544;48.834;9.194;2023-05-01T07:19:59;7.07;;;6.47;;
3066;SDS011;1544;48.834;9.194;2023-05-01T07:22:35;6.30;;;5.80;;
3066;SDS011;1544;48.834;9.194;2023-05-01T07:25:11;7.03;;;6.30;;
3066;SDS011;1544;48.834;9.194;2023-05-01T07:27:48;7.90;;;7.20;;
3066;SDS011;1544;48.834;9.194;2023-05-01T07:30:24;5.97;;;5.57;;
3066;SDS011;1544;48.834;9.194;2023-05-01T07:33:00;6.63;;;6.13;;
3066;SDS011;1544;48.834;9.194;2023-05-01T07:35:37;7.50;;;6.90;;
3066;SDS011;1544;48.834;9.194;2023-05-01T07:38:14;6.63;;;6.13;;
3066;SDS011;1544;48.834;9.194;2023-05-01T07:40:51;6.87;;;6.27;;
3066;SDS011;1544;48.834;9.194;2023-05-01T07:43:28;6.60;;;6.10;;
3066;SDS011;1544;48.834;9.194;2023-05-01T07:46:04;7.27;;;6.67;;
3066;SDS011;1544;48.834;9.194;2023-05-01T07:48:40;8.27;;;7.57;;
3066;SDS011;1544;48.834;9.194;2023-05-01T07:51:16;6.83;;;6.30;;
3066;SDS011;1544;48.834;9.194;2023-05-01T07:53:53;6.57;;;6.07;;
3066;SDS011;1544;48.834;9.194;2023-05-01T07:56:29;6.80;;;6.30;;
3066;SDS011;1544;48.834;9.194;2023-05-01T07:59:05;7.20;;;6.70;;
3066;SDS011;1544;48.834;9.194;2023-05-01T08:01:41;7.80;;;7.10;;
3066;SDS011;1544;48.834;9.194;2023-05-01T08:04:17;8.57;;;7.83;;
3066;SDS011;1544;48.834;9.194;2023-05-01T08:06:55;7.47;;;6.90;;
3066;SDS011;1544;48.834;9.194;2023-05-01T08:09:31;8.00;;;7.03;;
3066;SDS011;1544;48.834;9.194;2023-05-01T08:12:07;7.60;;;7.10;;
3066;SDS011;1544;48.834;9.194;2023-05-01T08:14:43;6.70;;;6.30;;
3066;SDS011;1544;48.834;9.194;2023-05-01T08:17:19;6.70;;;6.20;;
3066;SDS011;1544;48.834;9.194;2023-05-01T08:19:55;6.80;;;6.40;;
3066;SDS011;1544;48.834;9.194;2023-05-01T08:22:32;7.67;;;7.17;;
3066;SDS011;1544;48.834;9.194;2023-05-01T08:25:08;8.37;;;7.07;;
3066;SDS011;1544;48.834;9.194;2023-05-01T08:27:44;8.20;;;7.50;;
3066;SDS011;1544;48.834;9.194;2023-05-01T08:30:20;6.90;;;6.40;;
3066;SDS011;1544;48.834;9.194;2023-05-01T08:32:56;6.33;;;5.93;;
3066;SDS011;1544;48.834;9.194;2023-05-01T08:35:32;7.53;;;6.93;;
3066;SDS011;1544;48.834;9.194;2023-05-01T08:38:09;5.97;;;5.40;;
3066;SDS011;1544;48.834;9.194;2023-05-01T08:40:47;8.23;;;7.50;;
3066;SDS011;1544;48.834;9.194;2023-05-01T08:43:31;8.03;;;7.43;;
3066;SDS011;1544;48.834;9.194;2023-05-01T08:46:07;7.13;;;6.63;;
3066;SDS011;1544;48.834;9.194;2023-05-01T08:48:47;6.47;;;5.97;;
3066;SDS011;1544;48.834;9.194;2023-05-01T08:51:25;6.00;;;5.60;;
3066;SDS011;1544;48.834;9.194;2023-05-01T08:54:02;6.30;;;5.80;;
3066;SDS011;1544;48.834;9.194;2023-05-01T08:56:39;6.00;;;5.60;;
3066;SDS011;1544;48.834;9.194;2023-05-01T08:59:18;6.27;;;5.87;;
3066;SDS011;1544;48.834;9.194;2023-05-01T09:01:59;6.13;;;5.57;;
3066;SDS011;1544;48.834;9.194;2023-05-01T09:04:39;6.07;;;5.47;;
3066;SDS011;1544;48.834;9.194;2023-05-01T09:07:16;5.50;;;5.10;;
3066;SDS011;1544;48.834;9.194;2023-05-01T09:09:52;6.30;;;5.80;;
3066;SDS011;1544;48.834;9.194;2023-05-01T09:12:28;6.13;;;5.73;;
3066;SDS011;1544;48.834;9.194;2023-05-01T09:15:10;7.63;;;7.03;;
3066;SDS011;1544;48.834;9.194;2023-05-01T09:17:46;6.80;;;6.40;;
3066;SDS011;1544;48.834;9.194;2023-05-01T09:20:22;7.10;;;6.50;;
3066;SDS011;1544;48.834;9.194;2023-05-01T09:22:59;6.00;;;5.50;;
3066;SDS011;1544;48.834;9.194;2023-05-01T09:25:34;7.13;;;6.60;;
3066;SDS011;1544;48.834;9.194;2023-05-01T09:28:11;6.83;;;6.23;;
3066;SDS011;1544;48.834;9.194;2023-05-01T09:30:47;5.80;;;5.50;;
3066;SDS011;1544;48.834;9.194;2023-05-01T09:33:23;6.83;;;6.43;;
3066;SDS011;1544;48.834;9.194;2023-05-01T09:36:01;5.50;;;5.20;;
3066;SDS011;1544;48.834;9.194;2023-05-01T09:38:37;5.23;;;4.83;;
3066;SDS011;1544;48.834;9.194;2023-05-01T09:41:18;6.20;;;5.70;;
3066;SDS011;1544;48.834;9.194;2023-05-01T09:43:58;6.00;;;5.60;;
3066;SDS011;1544;48.834;9.194;2023-05-01T09:46:39;5.80;;;5.50;;
3066;SDS011;1544;48.834;9.194;2023-05-01T09:49:18;5.53;;;5.20;;
3066;SDS011;1544;48.834;9.194;2023-05-01T09:51:56;5.60;;;5.30;;
3066;SDS011;1544;48.834;9.194;2023-05-01T09:54:45;5.90;;;5.50;;
3066;SDS011;1544;48.834;9.194;2023-05-01T09:57:34;7.00;;;6.50;;
3066;SDS011;1544;48.834;9.194;2023-05-01T10:00:12;6.40;;;5.90;;
3066;SDS011;1544;48.834;9.194;2023-05-01T10:02:50;7.40;;;6.80;;
3066;SDS011;1544;48.834;9.194;2023-05-01T10:05:27;5.60;;;5.30;;
3066;SDS011;1544;48.834;9.194;2023-05-01T10:08:18;6.50;;;6.10;;
3066;SDS011;1544;48.834;9.194;2023-05-01T10:11:03;5.53;;;5.13;;
3066;SDS011;1544;48.834;9.194;2023-05-01T10:13:40;6.60;;;6.10;;
3066;SDS011;1544;48.834;9.194;2023-05-01T10:16:28;6.17;;;5.57;;
3066;SDS011;1544;48.834;9.194;2023-05-01T10:19:16;5.37;;;5.03;;
3066;SDS011;1544;48.834;9.194;2023-05-01T10:21:55;5.93;;;5.53;;
3066;SDS011;1544;48.834;9.194;2023-05-01T10:24:31;6.20;;;5.90;;
3066;SDS011;1544;48.834;9.194;2023-05-01T10:27:08;5.60;;;5.30;;
3066;SDS011;1544;48.834;9.194;2023-05-01T10:29:46;6.27;;;5.77;;
3066;SDS011;1544;48.834;9.194;2023-05-01T10:32:25;6.80;;;6.13;;
3066;SDS011;1544;48.834;9.194;2023-05-01T10:35:03;6.20;;;5.70;;
3066;SDS011;1544;48.834;9.194;2023-05-01T10:37:55;5.60;;;5.30;;
3066;SDS011;1544;48.834;9.194;2023-05-01T10:43:22;5.07;;;4.77;;
3066;SDS011;1544;48.834;9.194;2023-05-01T10:51:22;6.77;;;6.30;;
3066;SDS011;1544;48.834;9.194;2023-05-01T10:56:48;5.80;;;5.37;;
3066;SDS011;1544;48.834;9.194;2023-05-01T10:59:24;4.90;;;4.50;;
3066;SDS011;1544;48.834;9.194;2023-05-01T11:02:00;6.50;;;6.10;;
3066;SDS011;1544;48.834;9.194;2023-05-01T11:04:56;5.63;;;5.23;;
3066;SDS011;1544;48.834;9.194;2023-05-01T11:07:33;5.50;;;4.57;;
3066;SDS011;1544;48.834;9.194;2023-05-01T11:10:23;6.67;;;6.17;;
3066;SDS011;1544;48.834;9.194;2023-05-01T11:13:00;5.43;;;5.03;;
3066;SDS011;1544;48.834;9.194;2023-05-01T11:15:36;4.10;;;3.90;;
3066;SDS011;1544;48.834;9.194;2023-05-01T11:18:14;6.43;;;6.03;;
3066;SDS011;1544;48.834;9.194;2023-05-01T11:20:50;5.50;;;5.13;;
3066;SDS011;1544;48.834;9.194;2023-05-01T11:23:26;5.40;;;4.90;;
3066;SDS011;1544;48.834;9.194;2023-05-01T11:26:03;5.87;;;5.57;;
3066;SDS011;1544;48.834;9.194;2023-05-01T11:28:40;6.83;;;6.23;;
3066;SDS011;1544;48.834;9.194;2023-05-01T11:31:16;5.20;;;4.90;;
3066;SDS011;1544;48.834;9.194;2023-05-01T11:33:59;5.67;;;5.37;;
3066;SDS011;1544;48.834;9.194;2023-05-01T11:36:48;6.27;;;5.87;;
3066;SDS011;1544;48.834;9.194;2023-05-01T11:39:26;5.70;;;5.33;;
3066;SDS011;1544;48.834;9.194;2023-05-01T11:42:06;5.90;;;5.60;;
3066;SDS011;1544;48.834;9.194;2023-05-01T11:45:07;5.60;;;5.20;;
3066;SDS011;1544;48.834;9.194;2023-05-01T11:47:46;5.87;;;5.57;;
3066;SDS011;1544;48.834;9.194;2023-05-01T11:50:30;5.50;;;5.10;;
3066;SDS011;1544;48.834;9.194;2023-05-01T11:53:10;5.37;;;5.07;;
3066;SDS011;1544;48.834;9.194;2023-05-01T11:55:49;6.60;;;6.10;;
3066;SDS011;1544;48.834;9.194;2023-05-01T11:58:30;6.10;;;5.70;;
3066;SDS011;1544;48.834;9.194;2023-05-01T12:01:07;6.67;;;5.90;;
3066;SDS011;1544;48.834;9.194;2023-05-01T12:03:43;6.47;;;6.07;;
3066;SDS011;1544;48.834;9.194;2023-05-01T12:06:20;5.33;;;4.90;;
3066;SDS011;1544;48.834;9.194;2023-05-01T12:08:56;6.77;;;6.30;;
3066;SDS011;1544;48.834;9.194;2023-05-01T12:11:32;6.77;;;6.27;;
3066;SDS011;1544;48.834;9.194;2023-05-01T12:14:09;6.30;;;5.80;;
3066;SDS011;1544;48.834;9.194;2023-05-01T12:16:45;5.37;;;4.87;;
3066;SDS011;1544;48.834;9.194;2023-05-01T12:19:22;4.93;;;4.60;;
3066;SDS011;1544;48.834;9.194;2023-05-01T12:22:05;6.30;;;5.80;;
3066;SDS011;1544;48.834;9.194;2023-05-01T12:24:49;7.13;;;6.63;;
3066;SDS011;1544;48.834;9.194;2023-05-01T12:27:28;5.30;;;5.00;;
3066;SDS011;1544;48.834;9.194;2023-05-01T12:30:07;5.90;;;5.50;;
3066;SDS011;1544;48.834;9.194;2023-05-01T12:32:43;5.30;;;4.80;;
3066;SDS011;1544;48.834;9.194;2023-05-01T12:35:19;6.33;;;5.93;;
3066;SDS011;1544;48.834;9.194;2023-05-01T12:37:56;9.50;;;5.30;;
3066;SDS011;1544;48.834;9.194;2023-05-01T12:40:33;5.50;;;5.10;;
3066;SDS011;1544;48.834;9.194;2023-05-01T12:43:09;5.70;;;5.40;;
3066;SDS011;1544;48.834;9.194;2023-05-01T12:45:46;6.20;;;5.80;;
3066;SDS011;1544;48.834;9.194;2023-05-01T12:48:28;5.83;;;5.37;;
3066;SDS011;1544;48.834;9.194;2023-05-01T12:51:06;6.10;;;5.70;;
3066;SDS011;1544;48.834;9.194;2023-05-01T12:53:42;5.57;;;5.17;;
3066;SDS011;1544;48.834;9.194;2023-05-01T12:56:22;4.53;;;4.23;;
3066;SDS011;1544;48.834;9.194;2023-05-01T12:58:59;6.13;;;5.77;;
3066;SDS011;1544;48.834;9.194;2023-05-01T13:01:35;7.40;;;6.93;;
3066;SDS011;1544;48.834;9.194;2023-05-01T13:04:18;6.57;;;6.00;;
3066;SDS011;1544;48.834;9.194;2023-05-01T13:06:56;7.07;;;6.60;;
3066;SDS011;1544;48.834;9.194;2023-05-01T13:09:33;6.97;;;6.37;;
3066;SDS011;1544;48.834;9.194;2023-05-01T13:12:09;6.47;;;5.87;;
3066;SDS011;1544;48.834;9.194;2023-05-01T13:14:46;6.60;;;6.10;;
3066;SDS011;1544;48.834;9.194;2023-05-01T13:17:23;4.90;;;4.60;;
3066;SDS011;1544;48.834;9.194;2023-05-01T13:20:04;6.47;;;5.87;;
3066;SDS011;1544;48.834;9.194;2023-05-01T13:22:41;6.80;;;6.20;;
3066;SDS011;1544;48.834;9.194;2023-05-01T13:25:17;6.50;;;5.90;;
3066;SDS011;1544;48.834;9.194;2023-05-01T13:27:54;6.07;;;5.67;;
3066;SDS011;1544;48.834;9.194;2023-05-01T13:30:31;7.00;;;6.60;;
3066;SDS011;1544;48.834;9.194;2023-05-01T13:33:09;7.20;;;6.60;;
3066;SDS011;1544;48.834;9.194;2023-05-01T13:35:45;5.23;;;4.93;;
3066;SDS011;1544;48.834;9.194;2023-05-01T13:38:21;5.90;;;5.57;;
3066;SDS011;1544;48.834;9.194;2023-05-01T13:40:59;6.57;;;6.07;;
3066;SDS011;1544;48.834;9.194;2023-05-01T13:43:35;6.27;;;5.90;;
3066;SDS011;1544;48.834;9.194;2023-05-01T13:46:12;7.83;;;7.23;;
3066;SDS011;1544;48.834;9.194;2023-05-01T13:48:50;6.40;;;6.00;;
3066;SDS011;1544;48.834;9.194;2023-05-01T13:51:26;6.33;;;5.83;;
3066;SDS011;1544;48.834;9.194;2023-05-01T13:54:02;7.03;;;6.63;;
3066;SDS011;1544;48.834;9.194;2023-05-01T13:56:39;6.63;;;6.13;;
3066;SDS011;1544;48.834;9.194;2023-05-01T13:59:15;6.30;;;5.90;;
3066;SDS011;1544;48.834;9.194;2023-05-01T14:01:51;7.57;;;7.07;;
3066;SDS011;1544;48.834;9.194;2023-05-01T14:04:27;6.03;;;5.50;;
3066;SDS011;1544;48.834;9.194;2023-05-01T14:07:03;6.43;;;6.03;;
3066;SDS011;1544;48.834;9.194;2023-05-01T14:09:40;7.00;;;6.57;;
3066;SDS011;1544;48.834;9.194;2023-05-01T14:12:18;6.17;;;5.73;;
3066;SDS011;1544;48.834;9.194;2023-05-01T14:15:00;6.90;;;6.40;;
3066;SDS011;1544;48.834;9.194;2023-05-01T14:17:39;8.27;;;7.67;;
3066;SDS011;1544;48.834;9.194;2023-05-01T14:20:15;8.20;;;7.53;;
3066;SDS011;1544;48.834;9.194;2023-05-01T14:22:51;8.40;;;7.80;;
3066;SDS011;1544;48.834;9.194;2023-05-01T14:25:28;7.83;;;7.23;;
3066;SDS011;1544;48.834;9.194;2023-05-01T14:28:09;6.20;;;5.60;;
3066;SDS011;1544;48.834;9.194;2023-05-01T14:30:48;7.00;;;6.40;;
3066;SDS011;1544;48.834;9.194;2023-05-01T14:33:25;7.37;;;6.97;;
3066;SDS011;1544;48.834;9.194;2023-05-01T14:36:01;6.80;;;6.20;;
3066;SDS011;1544;48.834;9.194;2023-05-01T14:38:38;7.17;;;6.67;;
3066;SDS011;1544;48.834;9.194;2023-05-01T14:41:18;7.13;;;6.73;;
3066;SDS011;1544;48.834;9.194;2023-05-01T14:43:55;7.50;;;6.93;;
3066;SDS011;1544;48.834;9.194;2023-05-01T14:46:32;6.67;;;6.30;;
3066;SDS011;1544;48.834;9.194;2023-05-01T14:49:10;6.27;;;5.87;;
3066;SDS011;1544;48.834;9.194;2023-05-01T14:51:55;7.20;;;6.70;;
3066;SDS011;1544;48.834;9.194;2023-05-01T14:54:31;5.30;;;5.00;;
3066;SDS011;1544;48.834;9.194;2023-05-01T14:57:19;4.60;;;4.40;;
3066;SDS011;1544;48.834;9.194;2023-05-01T14:59:55;6.33;;;5.90;;
3066;SDS011;1544;48.834;9.194;2023-05-01T15:02:31;9.00;;;8.40;;
3066;SDS011;1544;48.834;9.194;2023-05-01T15:05:07;6.70;;;6.30;;
3066;SDS011;1544;48.834;9.194;2023-05-01T15:07:44;7.67;;;7.17;;
3066;SDS011;1544;48.834;9.194;2023-05-01T15:10:21;6.37;;;5.97;;
3066;SDS011;1544;48.834;9.194;2023-05-01T15:13:00;7.03;;;6.53;;
3066;SDS011;1544;48.834;9.194;2023-05-01T15:15:36;6.50;;;6.00;;
3066;SDS011;1544;48.834;9.194;2023-05-01T15:18:12;6.20;;;5.77;;
3066;SDS011;1544;48.834;9.194;2023-05-01T15:20:48;5.10;;;4.90;;
3066;SDS011;1544;48.834;9.194;2023-05-01T15:23:24;5.63;;;5.33;;
3066;SDS011;1544;48.834;9.194;2023-05-01T15:26:01;5.43;;;5.13;;
3066;SDS011;1544;48.834;9.194;2023-05-01T15:28:38;5.73;;;5.23;;
3066;SDS011;1544;48.834;9.194;2023-05-01T15:31:14;5.43;;;5.03;;
3066;SDS011;1544;48.834;9.194;2023-05-01T15:33:53;6.77;;;6.30;;
3066;SDS011;1544;48.834;9.194;2023-05-01T15:36:30;5.90;;;5.50;;
3066;SDS011;1544;48.834;9.194;2023-05-01T15:39:07;7.30;;;6.77;;
3066;SDS011;1544;48.834;9.194;2023-05-01T15:41:46;8.17;;;7.53;;
3066;SDS011;1544;48.834;9.194;2023-05-01T15:44:22;10.80;;;9.90;;
3066;SDS011;1544;48.834;9.194;2023-05-01T15:46:58;9.40;;;8.60;;
3066;SDS011;1544;48.834;9.194;2023-05-01T15:49:34;7.13;;;6.63;;
3066;SDS011;1544;48.834;9.194;2023-05-01T15:52:10;11.20;;;10.30;;
3066;SDS011;1544;48.834;9.194;2023-05-01T15:54:46;9.23;;;8.43;;
3066;SDS011;1544;48.834;9.194;2023-05-01T15:57:23;8.03;;;7.53;;
3066;SDS011;1544;48.834;9.194;2023-05-01T15:59:59;6.67;;;6.27;;
3066;SDS011;1544;48.834;9.194;2023-05-01T16:02:39;7.47;;;7.03;;
3066;SDS011;1544;48.834;9.194;2023-05-01T16:05:18;6.50;;;6.07;;
3066;SDS011;1544;48.834;9.194;2023-05-01T16:07:59;5.40;;;5.10;;
3066;SDS011;1544;48.834;9.194;2023-05-01T16:10:35;6.87;;;6.30;;
3066;SDS011;1544;48.834;9.194;2023-05-01T16:13:12;5.63;;;5.23;;
3066;SDS011;1544;48.834;9.194;2023-05-01T16:15:50;6.43;;;5.67;;
3066;SDS011;1544;48.834;9.194;2023-05-01T16:18:26;5.40;;;5.10;;
3066;SDS011;1544;48.834;9.194;2023-05-01T16:21:02;6.60;;;6.20;;
3066;SDS011;1544;48.834;9.194;2023-05-01T16:23:38;6.97;;;6.37;;
3066;SDS011;1544;48.834;9.194;2023-05-01T16:26:22;6.10;;;5.70;;
3066;SDS011;1544;48.834;9.194;2023-05-01T16:29:04;7.20;;;6.60;;
3066;SDS011;1544;48.834;9.194;2023-05-01T16:31:43;6.70;;;6.30;;
3066;SDS011;1544;48.834;9.194;2023-05-01T16:34:23;6.93;;;6.43;;
3066;SDS011;1544;48.834;9.194;2023-05-01T16:37:01;7.50;;;6.80;;
3066;SDS011;1544;48.834;9.194;2023-05-01T16:39:37;6.03;;;5.63;;
3066;SDS011;1544;48.834;9.194;2023-05-01T16:42:13;7.47;;;6.77;;
3066;SDS011;1544;48.834;9.194;2023-05-01T16:44:49;6.77;;;6.20;;
3066;SDS011;1544;48.834;9.194;2023-05-01T16:47:25;6.50;;;6.00;;